Time;durP1;ratioP1;P1;durP2;ratioP2;P2;SDS_P1;SDS_P2;PMS_P1;PMS_P2;Temp;Humidity;BMP_temperature;BMP_pressure;BME280_temperature;BME280_humidity;BME280_pressure;Samples;Min_cycle;Max_cycle;Signal;HPM_P1;HPM_P2
2021/12/14 00:16:26;;;;;;;63.97;45.03;;;;;;;;;;4905626;29;20059;-80
2021/12/14 00:20:38;;;;;;;56.07;40.20;;;;;;;;;;4907574;29;20052;-80
2021/12/14 00:28:35;;;;;;;54.87;39.23;;;;;;;;;;4898167;29;20514;-80
2021/12/14 00:32:28;;;;;;;56.57;41.37;;;;;;;;;;4895992;29;20048;-81
2021/12/14 00:36:26;;;;;;;56.47;42.37;;;;;;;;;;4879114;29;20055;-81
2021/12/14 00:57:44;;;;;;;68.55;46.80;;;;;;;;;;4895640;29;20055;-80
2021/12/14 01:01:46;;;;;;;78.13;53.00;;;;;;;;;;4905507;29;20518;-80
2021/12/14 01:05:14;;;;;;;82.50;52.63;;;;;;;;;;4868320;29;20055;-80
2021/12/14 01:08:28;;;;;;;72.90;48.70;;;;;;;;;;4888155;29;20057;-80
2021/12/14 01:29:52;;;;;;;60.50;42.30;;;;;;;;;;4907023;29;20049;-80
2021/12/14 01:33:25;;;;;;;64.77;43.03;;;;;;;;;;4891303;29;20048;-79
2021/12/14 01:37:03;;;;;;;61.67;43.03;;;;;;;;;;4895536;29;20061;-80
2021/12/14 01:40:45;;;;;;;70.77;47.63;;;;;;;;;;4879163;29;20052;-79
2021/12/14 01:44:14;;;;;;;64.63;45.43;;;;;;;;;;4900525;29;20044;-80
2021/12/14 01:56:44;;;;;;;58.33;41.27;;;;;;;;;;4869971;29;20056;-81
2021/12/14 02:00:25;;;;;;;55.40;38.20;;;;;;;;;;4862967;29;20528;-81
2021/12/14 02:08:38;;;;;;;61.87;41.00;;;;;;;;;;4843259;29;20062;-80
2021/12/14 02:16:36;;;;;;;54.83;39.40;;;;;;;;;;4856228;29;20041;-79
2021/12/14 02:24:19;;;;;;;59.35;42.50;;;;;;;;;;4874139;29;20045;-80
2021/12/14 02:28:11;;;;;;;58.17;43.33;;;;;;;;;;4913574;29;20059;-81
2021/12/14 02:32:32;;;;;;;46.50;32.92;;;;;;;;;;4911886;29;20103;-80
2021/12/14 02:37:01;;;;;;;55.27;38.27;;;;;;;;;;4915451;29;20043;-81
2021/12/14 02:41:09;;;;;;;58.53;43.20;;;;;;;;;;4912637;29;20044;-81
2021/12/14 03:26:20;;;;;;;56.10;39.45;;;;;;;;;;4885358;29;20061;-80
2021/12/14 03:29:35;;;;;;;55.37;38.80;;;;;;;;;;4892134;29;20049;-80
2021/12/14 03:33:00;;;;;;;56.40;38.13;;;;;;;;;;4903596;29;20057;-80
2021/12/14 03:36:36;;;;;;;53.53;37.80;;;;;;;;;;4875238;29;20458;-81
2021/12/14 03:40:13;;;;;;;57.07;36.83;;;;;;;;;;4883639;29;20053;-80
2021/12/14 03:43:32;;;;;;;45.97;33.10;;;;;;;;;;4898274;29;20049;-78
2021/12/14 03:47:10;;;;;;;48.73;32.87;;;;;;;;;;4879520;29;20057;-78
2021/12/14 03:50:22;;;;;;;53.17;36.87;;;;;;;;;;4869532;29;20049;-77
2021/12/14 03:53:28;;;;;;;51.23;34.40;;;;;;;;;;4879564;29;20408;-77
2021/12/14 03:56:38;;;;;;;54.17;38.60;;;;;;;;;;4888992;29;20041;-78
2021/12/14 03:59:46;;;;;;;52.20;35.93;;;;;;;;;;4897073;29;20052;-78
2021/12/14 04:02:53;;;;;;;54.20;36.03;;;;;;;;;;4902795;29;20072;-77
2021/12/14 04:06:12;;;;;;;43.67;34.30;;;;;;;;;;4889392;29;20137;-78
2021/12/14 04:09:59;;;;;;;56.20;37.50;;;;;;;;;;4896602;29;20052;-81
2021/12/14 04:13:23;;;;;;;49.43;34.67;;;;;;;;;;4927088;29;20442;-80
2021/12/14 04:16:29;;;;;;;51.93;37.37;;;;;;;;;;4901537;29;20048;-78
2021/12/14 04:19:36;;;;;;;57.20;39.13;;;;;;;;;;4907907;29;20048;-78
2021/12/14 04:22:48;;;;;;;64.63;44.00;;;;;;;;;;4899986;29;20063;-80
2021/12/14 04:26:00;;;;;;;64.77;44.90;;;;;;;;;;4909834;29;20060;-77
2021/12/14 04:29:06;;;;;;;49.10;33.57;;;;;;;;;;4910691;29;20059;-78
2021/12/14 04:32:17;;;;;;;53.33;37.63;;;;;;;;;;4900274;29;20048;-77
2021/12/14 04:35:27;;;;;;;51.80;35.43;;;;;;;;;;4892197;29;20048;-80
2021/12/14 04:38:42;;;;;;;48.23;32.13;;;;;;;;;;4888643;29;20048;-79
2021/12/14 04:57:31;;;;;;;36.77;26.20;;;;;;;;;;518500;26;20339;-78
2021/12/14 05:00:54;;;;;;;46.47;30.70;;;;;;;;;;4924326;28;20055;-81
2021/12/14 05:04:28;;;;;;;37.27;25.23;;;;;;;;;;4923635;29;20055;-80
2021/12/14 05:07:58;;;;;;;27.23;20.43;;;;;;;;;;4908906;29;20478;-79
2021/12/14 05:11:12;;;;;;;40.05;26.95;;;;;;;;;;4895940;29;20456;-78
2021/12/14 05:14:23;;;;;;;40.83;26.77;;;;;;;;;;4889317;29;20052;-77
2021/12/14 05:17:32;;;;;;;39.60;27.17;;;;;;;;;;4899182;29;20044;-78
2021/12/14 05:20:48;;;;;;;38.17;27.10;;;;;;;;;;4878207;29;20059;-78
2021/12/14 05:44:44;;;;;;;50.93;30.10;;;;;;;;;;5414397;23;20037;-85
2021/12/14 06:06:36;;;;;;;48.77;33.60;;;;;;;;;;4871812;29;20052;-80
2021/12/14 06:23:55;;;;;;;64.23;40.87;;;;;;;;;;4885729;29;20017;-82
2021/12/14 06:41:40;;;;;;;46.87;25.70;;;;;;;;;;4902975;29;20025;-79
2021/12/14 07:02:45;;;;;;;57.92;35.50;;;;;;;;;;5388010;23;20767;-85
2021/12/14 07:11:37;;;;;;;55.40;36.57;;;;;;;;;;4855797;29;20074;-83
2021/12/14 07:15:52;;;;;;;61.20;35.13;;;;;;;;;;4851721;29;20049;-77
2021/12/14 07:19:17;;;;;;;56.90;37.90;;;;;;;;;;4833276;29;20054;-78
2021/12/14 07:22:23;;;;;;;61.60;37.07;;;;;;;;;;4887653;29;20052;-78
2021/12/14 07:25:34;;;;;;;67.57;42.60;;;;;;;;;;4889570;29;20041;-77
2021/12/14 07:28:44;;;;;;;62.10;41.20;;;;;;;;;;4861374;29;20060;-78
2021/12/14 07:31:50;;;;;;;62.17;40.03;;;;;;;;;;4869298;29;20060;-78
2021/12/14 07:35:14;;;;;;;62.20;43.20;;;;;;;;;;4882395;29;20051;-77
2021/12/14 07:38:25;;;;;;;53.43;38.53;;;;;;;;;;4857527;29;20131;-77
2021/12/14 17:06:34;;;;;;;80.23;50.73;;;;;;;;;;5262774;23;20056;-81
2021/12/14 17:14:21;;;;;;;101.33;59.47;;;;;;;;;;4912714;29;20048;-81
2021/12/14 17:17:35;;;;;;;90.13;54.33;;;;;;;;;;4918600;29;20056;-83
2021/12/14 17:20:45;;;;;;;96.07;59.07;;;;;;;;;;4890930;29;20246;-82
2021/12/14 17:24:11;;;;;;;100.70;60.47;;;;;;;;;;4927415;29;20057;-81
2021/12/14 17:27:25;;;;;;;99.77;60.00;;;;;;;;;;4884979;29;20045;-81
2021/12/14 17:30:33;;;;;;;101.67;57.83;;;;;;;;;;4890134;29;20088;-82
2021/12/14 17:33:43;;;;;;;96.37;59.10;;;;;;;;;;4902508;29;20056;-80
2021/12/14 17:36:59;;;;;;;111.97;58.75;;;;;;;;;;4898809;29;20040;-82
2021/12/14 17:40:13;;;;;;;110.30;63.57;;;;;;;;;;4928573;29;20063;-82
2021/12/14 17:43:26;;;;;;;110.40;59.67;;;;;;;;;;4905887;29;20047;-82
2021/12/14 17:46:37;;;;;;;98.80;49.97;;;;;;;;;;4907108;29;20060;-83
2021/12/14 17:49:49;;;;;;;111.13;53.20;;;;;;;;;;4920842;29;20028;-80
2021/12/14 18:02:31;;;;;;;126.70;62.23;;;;;;;;;;4902034;29;20060;-81
2021/12/14 18:06:08;;;;;;;128.93;62.77;;;;;;;;;;4901463;29;20069;-86
2021/12/14 18:13:46;;;;;;;123.13;59.03;;;;;;;;;;4908412;29;20025;-84
2021/12/14 18:33:45;;;;;;;104.00;53.80;;;;;;;;;;5085548;23;20048;-85
2021/12/14 18:54:13;;;;;;;94.37;50.97;;;;;;;;;;4980311;23;20040;-83
2021/12/14 18:57:50;;;;;;;70.37;40.73;;;;;;;;;;4885757;29;20056;-83
2021/12/14 19:01:18;;;;;;;82.23;47.50;;;;;;;;;;4894245;29;20053;-82
2021/12/14 19:05:21;;;;;;;75.05;45.47;;;;;;;;;;4895738;29;20045;-83
2021/12/14 19:16:44;;;;;;;77.43;44.03;;;;;;;;;;5539743;23;20065;-85
2021/12/14 19:24:59;;;;;;;86.67;48.17;;;;;;;;;;5108473;23;20058;-84
2021/12/14 19:28:32;;;;;;;83.73;45.57;;;;;;;;;;5000036;23;20069;-86
2021/12/14 19:38:50;;;;;;;77.57;46.40;;;;;;;;;;4845846;29;20476;-79
2021/12/14 19:42:25;;;;;;;77.07;48.73;;;;;;;;;;4851984;29;20069;-79
2021/12/14 19:45:51;;;;;;;79.97;46.20;;;;;;;;;;4837979;29;20030;-81
2021/12/14 19:49:22;;;;;;;78.60;46.87;;;;;;;;;;4852748;29;20067;-81
2021/12/14 19:52:45;;;;;;;92.80;53.30;;;;;;;;;;4835727;29;20065;-81
2021/12/14 19:56:18;;;;;;;97.40;54.23;;;;;;;;;;4849520;29;20072;-80
2021/12/14 19:59:53;;;;;;;88.83;47.67;;;;;;;;;;4851443;29;20435;-82
2021/12/14 20:03:10;;;;;;;90.67;51.57;;;;;;;;;;4835083;29;20061;-78
2021/12/14 20:06:20;;;;;;;93.53;52.40;;;;;;;;;;4836589;29;20518;-78
2021/12/14 20:09:30;;;;;;;97.43;51.07;;;;;;;;;;4816638;29;20065;-78
2021/12/14 20:12:41;;;;;;;90.57;50.03;;;;;;;;;;4799471;29;20047;-78
2021/12/14 20:15:49;;;;;;;88.77;50.30;;;;;;;;;;4808588;29;20525;-79
2021/12/14 20:18:59;;;;;;;75.03;38.97;;;;;;;;;;4835906;29;20065;-79
2021/12/14 20:22:07;;;;;;;92.93;53.50;;;;;;;;;;4821275;29;20058;-79
2021/12/14 20:25:39;;;;;;;88.32;51.42;;;;;;;;;;4810457;29;20062;-79
2021/12/14 20:28:53;;;;;;;92.63;49.87;;;;;;;;;;4813543;29;20535;-79
2021/12/14 20:32:00;;;;;;;;;;;;;;;;;;4838967;29;20464;-79
2021/12/14 20:35:16;;;;;;;79.47;37.17;;;;;;;;;;4823547;29;19916;-78
2021/12/14 20:38:25;;;;;;;98.87;51.67;;;;;;;;;;4817459;29;20066;-79
2021/12/14 20:41:37;;;;;;;109.63;54.17;;;;;;;;;;4826725;29;20042;-78
2021/12/14 20:48:13;;;;;;;100.33;52.60;;;;;;;;;;4812193;29;20047;-78
2021/12/14 20:51:28;;;;;;;100.95;53.15;;;;;;;;;;4813095;29;20065;-79
2021/12/14 20:54:34;;;;;;;114.97;56.97;;;;;;;;;;4815393;29;20496;-79
2021/12/14 20:58:01;;;;;;;106.10;55.97;;;;;;;;;;4824946;29;20455;-79
2021/12/14 21:01:09;;;;;;;113.60;52.97;;;;;;;;;;4816783;29;20055;-78
2021/12/14 21:04:26;;;;;;;116.03;55.87;;;;;;;;;;4836311;29;20043;-79
2021/12/14 21:07:35;;;;;;;92.13;45.97;;;;;;;;;;4839851;29;20058;-81
2021/12/14 21:10:54;;;;;;;108.27;50.57;;;;;;;;;;4818933;29;20058;-79
2021/12/14 21:14:12;;;;;;;91.83;47.40;;;;;;;;;;4812275;29;20527;-78
2021/12/14 21:17:19;;;;;;;79.80;42.80;;;;;;;;;;4808622;29;20046;-79
2021/12/14 21:20:29;;;;;;;82.03;44.93;;;;;;;;;;4807807;29;20054;-78
2021/12/14 21:23:37;;;;;;;80.93;41.30;;;;;;;;;;4825679;29;20055;-79
2021/12/14 21:26:48;;;;;;;80.03;42.60;;;;;;;;;;4827422;29;20057;-79
2021/12/14 21:30:11;;;;;;;77.63;42.30;;;;;;;;;;4827593;29;20428;-78
2021/12/14 21:33:23;;;;;;;75.27;36.30;;;;;;;;;;4818572;29;20057;-81
2021/12/14 21:36:41;;;;;;;64.53;37.45;;;;;;;;;;4820133;29;20408;-79
2021/12/14 21:40:02;;;;;;;63.77;34.40;;;;;;;;;;4827509;29;20415;-79
2021/12/14 21:43:31;;;;;;;95.43;46.17;;;;;;;;;;4834791;29;20518;-79
2021/12/14 21:46:49;;;;;;;111.70;49.60;;;;;;;;;;4834471;29;20503;-80
2021/12/14 22:00:02;;;;;;;94.37;47.03;;;;;;;;;;4880800;29;20049;-80
2021/12/14 22:12:44;;;;;;;85.10;47.07;;;;;;;;;;4855814;29;20057;-81
2021/12/14 22:16:25;;;;;;;85.00;47.33;;;;;;;;;;4880031;29;20055;-82
2021/12/14 22:20:35;;;;;;;76.70;42.93;;;;;;;;;;4889632;29;20049;-82
2021/12/14 22:33:18;;;;;;;37.13;17.47;;;;;;;;;;4868063;29;20073;-81
2021/12/14 22:36:27;;;;;;;73.97;40.27;;;;;;;;;;4876214;29;20072;-82
2021/12/14 22:40:32;;;;;;;76.23;42.27;;;;;;;;;;4853244;29;20072;-81
2021/12/14 22:44:21;;;;;;;85.50;47.93;;;;;;;;;;4850461;29;20046;-81
2021/12/14 22:52:21;;;;;;;80.13;45.07;;;;;;;;;;4852068;29;20061;-81
2021/12/14 22:55:41;;;;;;;59.25;28.83;;;;;;;;;;4860857;29;20093;-82
2021/12/14 22:59:28;;;;;;;92.27;48.00;;;;;;;;;;4861246;29;20046;-81
2021/12/14 23:30:37;;;;;;;111.43;54.07;;;;;;;;;;4881609;29;20111;-81
2021/12/14 23:34:32;;;;;;;114.80;54.65;;;;;;;;;;4826651;29;20046;-82
2021/12/14 23:43:36;;;;;;;113.60;54.77;;;;;;;;;;4838695;29;20057;-82
